createdAt,value
2022-12-06T00:01:26.639Z,76.88
2022-12-06T00:03:56.112Z,69.88
2022-12-06T00:06:25.067Z,58.17
2022-12-06T00:08:52.679Z,71.68
2022-12-06T00:11:25.645Z,61.25
2022-12-06T00:13:57.543Z,73.38
2022-12-06T00:16:24.999Z,89.70
2022-12-06T00:18:52.169Z,154.40
2022-12-06T00:21:23.411Z,95.07
2022-12-06T00:23:54.650Z,97.72
2022-12-06T00:26:22.838Z,47.40
2022-12-06T00:28:53.564Z,47.05
2022-12-06T00:31:22.746Z,55.05
2022-12-06T00:33:50.427Z,85.28
2022-12-06T00:36:37.166Z,30.08
2022-12-06T00:39:07.685Z,72.30
2022-12-06T00:41:35.039Z,79.93
2022-12-06T00:44:02.069Z,81.05
2022-12-06T00:46:31.164Z,105.95
2022-12-06T00:49:00.203Z,48.40
2022-12-06T00:51:29.454Z,60.30
2022-12-06T00:53:56.516Z,40.33
2022-12-06T00:56:23.454Z,51.42
2022-12-06T00:58:50.498Z,62.58
2022-12-06T01:01:26.587Z,65.13
2022-12-06T01:03:56.503Z,29.45
2022-12-06T01:06:28.019Z,70.28
2022-12-06T01:08:57.016Z,44.10
2022-12-06T01:11:24.523Z,30.70
2022-12-06T01:13:52.815Z,37.95
2022-12-06T01:16:25.661Z,63.33
2022-12-06T01:18:55.476Z,98.35
2022-12-06T01:21:23.530Z,61.85
2022-12-06T01:23:50.811Z,24.95
2022-12-06T01:26:22.185Z,27.00
2022-12-06T01:28:49.380Z,50.72
2022-12-06T01:31:16.599Z,47.28
2022-12-06T01:33:44.235Z,42.40
2022-12-06T01:36:25.369Z,38.50
2022-12-06T01:38:54.812Z,21.70
2022-12-06T01:41:23.761Z,24.33
2022-12-06T01:43:51.632Z,24.40
2022-12-06T01:46:39.588Z,29.33
2022-12-06T01:49:12.471Z,31.33
2022-12-06T01:51:44.141Z,24.95
2022-12-06T01:54:13.835Z,21.75
2022-12-06T01:56:41.502Z,21.50
2022-12-06T01:59:10.359Z,34.15
2022-12-06T02:01:39.144Z,27.73
2022-12-06T02:04:07.172Z,33.15
2022-12-06T02:06:34.777Z,40.70
2022-12-06T02:09:06.116Z,53.35
2022-12-06T02:11:35.333Z,38.22
2022-12-06T02:14:11.121Z,35.65
2022-12-06T02:16:55.384Z,20.80
2022-12-06T02:19:53.091Z,24.63
2022-12-06T02:22:28.346Z,26.10
2022-12-06T02:25:25.429Z,27.20
2022-12-06T02:28:08.550Z,23.92
2022-12-06T02:31:12.867Z,22.10
2022-12-06T02:33:49.688Z,21.52
2022-12-06T02:36:49.189Z,26.95
2022-12-06T02:39:26.213Z,25.02
2022-12-06T02:42:20.476Z,24.55
2022-12-06T02:44:58.421Z,23.63
2022-12-06T02:47:31.646Z,22.02
2022-12-06T02:50:00.926Z,19.27
2022-12-06T02:52:30.840Z,21.13
2022-12-06T02:55:01.163Z,21.98
2022-12-06T02:57:45.363Z,24.00
2022-12-06T03:00:37.075Z,21.23
2022-12-06T03:03:31.647Z,21.10
2022-12-06T03:06:01.610Z,23.67
2022-12-06T03:09:04.715Z,22.05
2022-12-06T03:11:55.666Z,21.73
2022-12-06T03:14:25.887Z,21.15
2022-12-06T03:17:08.257Z,20.73
2022-12-06T03:19:38.748Z,20.67
2022-12-06T03:22:22.059Z,23.95
2022-12-06T03:24:51.217Z,20.85
2022-12-06T03:27:21.892Z,20.60
2022-12-06T03:29:53.515Z,18.73
2022-12-06T03:32:24.118Z,20.05
2022-12-06T03:34:54.065Z,18.95
2022-12-06T03:37:23.939Z,21.05
2022-12-06T03:40:12.421Z,19.35
2022-12-06T03:42:39.975Z,23.20
2022-12-06T03:45:09.490Z,21.92
2022-12-06T03:48:15.703Z,19.63
2022-12-06T03:50:53.000Z,17.50
2022-12-06T03:53:24.083Z,21.25
2022-12-06T03:55:51.018Z,18.45
2022-12-06T03:58:18.044Z,21.70
2022-12-06T04:00:45.398Z,19.67
2022-12-06T04:03:12.659Z,20.58
2022-12-06T04:05:39.702Z,17.45
2022-12-06T04:08:06.782Z,18.83
2022-12-06T04:10:34.041Z,17.20
2022-12-06T04:13:01.267Z,18.60
2022-12-06T04:15:37.496Z,17.17
2022-12-06T04:18:13.480Z,18.90
2022-12-06T04:21:08.109Z,18.70
2022-12-06T04:23:40.146Z,20.33
2022-12-06T04:26:10.144Z,18.67
2022-12-06T04:28:55.782Z,18.80
2022-12-06T04:31:42.396Z,18.45
2022-12-06T04:34:28.470Z,19.90
2022-12-06T04:37:13.980Z,21.27
2022-12-06T04:39:41.154Z,19.10
2022-12-06T04:42:27.203Z,21.63
2022-12-06T04:44:54.386Z,23.70
2022-12-06T04:47:21.537Z,18.75
2022-12-06T04:49:48.772Z,20.00
2022-12-06T04:52:16.309Z,17.95
2022-12-06T04:54:43.464Z,17.23
2022-12-06T04:57:15.296Z,23.38
2022-12-06T04:59:44.151Z,20.92
2022-12-06T05:02:14.148Z,17.90
2022-12-06T05:04:41.073Z,20.67
2022-12-06T05:07:08.629Z,18.73
2022-12-06T05:09:35.589Z,18.25
2022-12-06T05:12:02.549Z,18.05
2022-12-06T05:14:29.689Z,20.55
2022-12-06T05:16:56.658Z,17.88
2022-12-06T05:19:23.729Z,19.38
2022-12-06T05:21:50.711Z,17.75
2022-12-06T05:24:17.764Z,17.85
2022-12-06T05:26:44.716Z,21.00
2022-12-06T05:29:11.768Z,18.30
2022-12-06T05:31:38.815Z,18.10
2022-12-06T05:34:05.800Z,16.73
2022-12-06T05:36:32.762Z,19.27
2022-12-06T05:38:59.843Z,21.90
2022-12-06T05:41:26.881Z,19.27
2022-12-06T05:43:53.981Z,20.15
2022-12-06T05:46:20.962Z,19.48
2022-12-06T05:48:48.054Z,21.45
2022-12-06T05:51:15.050Z,19.60
2022-12-06T05:53:42.140Z,19.60
2022-12-06T05:56:11.555Z,18.38
2022-12-06T05:58:38.921Z,19.48
2022-12-06T06:01:07.470Z,15.90
2022-12-06T06:03:34.879Z,17.40
2022-12-06T06:06:03.115Z,14.98
2022-12-06T06:08:31.082Z,16.20
2022-12-06T06:10:58.642Z,15.85
2022-12-06T06:13:26.203Z,15.00
2022-12-06T06:15:53.242Z,15.32
2022-12-06T06:18:20.933Z,16.33
2022-12-06T06:20:49.855Z,14.00
2022-12-06T06:23:17.193Z,18.10
2022-12-06T06:25:44.281Z,16.48
2022-12-06T06:28:11.343Z,21.42
2022-12-06T06:30:38.521Z,16.33
2022-12-06T06:33:05.517Z,14.48
2022-12-06T06:35:32.499Z,13.23
2022-12-06T06:37:59.655Z,14.15
2022-12-06T06:40:26.888Z,14.43
2022-12-06T06:42:54.017Z,18.73
2022-12-06T06:45:26.791Z,17.35
2022-12-06T06:47:55.604Z,17.45
2022-12-06T06:50:22.672Z,15.65
2022-12-06T06:52:49.854Z,17.23
2022-12-06T06:55:16.991Z,16.27
2022-12-06T06:57:44.078Z,15.98
2022-12-06T07:00:11.881Z,15.10
2022-12-06T07:02:39.670Z,16.02
2022-12-06T07:05:07.397Z,19.55
2022-12-06T07:07:34.455Z,16.75
2022-12-06T07:10:01.719Z,19.10
2022-12-06T07:12:29.044Z,15.88
2022-12-06T07:14:56.069Z,19.63
2022-12-06T07:17:24.611Z,17.60
2022-12-06T07:19:51.842Z,18.85
2022-12-06T07:22:18.853Z,16.90
2022-12-06T07:24:52.042Z,18.63
2022-12-06T07:27:19.485Z,18.17
2022-12-06T07:29:46.468Z,16.27
2022-12-06T07:32:13.409Z,14.73
2022-12-06T07:34:40.407Z,18.90
2022-12-06T07:37:07.541Z,13.23
2022-12-06T07:39:34.437Z,18.30
2022-12-06T07:42:19.777Z,12.82
2022-12-06T07:45:02.539Z,15.07
2022-12-06T07:47:40.912Z,15.13
2022-12-06T07:50:15.990Z,18.27
2022-12-06T07:52:46.034Z,16.70
2022-12-06T07:55:13.834Z,15.60
2022-12-06T07:57:43.621Z,16.17
2022-12-06T08:00:14.762Z,16.60
2022-12-06T08:02:42.078Z,20.00
2022-12-06T08:05:09.594Z,17.38
2022-12-06T08:07:36.630Z,18.25
2022-12-06T08:10:04.783Z,19.58
2022-12-06T08:12:32.403Z,20.90
2022-12-06T08:15:00.211Z,17.42
2022-12-06T08:17:28.081Z,22.13
2022-12-06T08:19:55.135Z,25.15
2022-12-06T08:22:22.099Z,20.67
2022-12-06T08:24:49.087Z,19.65
2022-12-06T08:27:16.101Z,24.50
2022-12-06T08:29:45.364Z,27.45
2022-12-06T08:32:12.450Z,21.45
2022-12-06T08:34:39.593Z,19.40
2022-12-06T08:37:06.572Z,24.48
2022-12-06T08:39:33.620Z,21.98
2022-12-06T08:42:03.441Z,18.58
2022-12-06T08:44:32.576Z,18.58
2022-12-06T08:47:01.531Z,16.63
2022-12-06T08:49:29.836Z,17.33
2022-12-06T08:51:58.365Z,20.50
2022-12-06T08:54:26.421Z,18.92
2022-12-06T08:56:53.663Z,16.33
2022-12-06T08:59:21.317Z,16.13
2022-12-06T09:01:48.401Z,16.17
2022-12-06T09:04:15.746Z,22.73
2022-12-06T09:06:44.209Z,21.15
2022-12-06T09:09:13.019Z,19.65
2022-12-06T09:11:40.958Z,23.05
2022-12-06T09:14:15.208Z,18.27
2022-12-06T09:16:45.412Z,21.67
2022-12-06T09:19:13.895Z,16.60
2022-12-06T09:21:46.551Z,16.73
2022-12-06T09:24:15.999Z,20.63
2022-12-06T09:26:43.328Z,18.13
2022-12-06T09:29:10.928Z,15.18
2022-12-06T09:31:41.146Z,19.73
2022-12-06T09:34:09.602Z,20.50
2022-12-06T09:37:00.598Z,19.23
2022-12-06T09:39:35.456Z,18.95
2022-12-06T09:42:37.252Z,16.77
2022-12-06T09:45:07.228Z,19.20
2022-12-06T09:48:08.880Z,19.27
2022-12-06T09:51:03.395Z,21.58
2022-12-06T09:54:00.646Z,21.42
2022-12-06T09:56:40.901Z,20.15
2022-12-06T09:59:21.657Z,20.48
2022-12-06T10:02:00.498Z,18.20
2022-12-06T10:04:46.661Z,20.10
2022-12-06T10:07:25.074Z,20.77
2022-12-06T10:10:21.279Z,18.88
2022-12-06T10:13:00.441Z,19.55
2022-12-06T10:15:42.230Z,18.75
2022-12-06T10:18:35.517Z,20.98
2022-12-06T10:21:13.522Z,20.25
2022-12-06T10:24:13.645Z,19.80
2022-12-06T10:26:49.786Z,17.70
2022-12-06T10:29:34.098Z,23.85
2022-12-06T10:32:11.103Z,17.50
2022-12-06T10:35:10.744Z,16.05
2022-12-06T10:37:42.334Z,13.38
2022-12-06T10:40:26.407Z,15.93
2022-12-06T10:43:11.622Z,16.80
2022-12-06T10:46:08.470Z,15.60
2022-12-06T10:48:57.408Z,16.25
2022-12-06T10:51:48.733Z,20.65
2022-12-06T10:54:25.467Z,16.85
2022-12-06T10:56:54.979Z,15.65
2022-12-06T10:59:38.257Z,20.27
2022-12-06T11:02:26.662Z,16.30
2022-12-06T11:04:59.421Z,16.10
2022-12-06T11:07:49.439Z,21.23
2022-12-06T11:10:24.565Z,15.35
2022-12-06T11:13:13.768Z,20.23
2022-12-06T11:15:46.838Z,16.08
2022-12-06T11:18:17.407Z,15.05
2022-12-06T11:21:00.136Z,17.73
2022-12-06T11:23:30.058Z,15.05
2022-12-06T11:26:22.961Z,16.13
2022-12-06T11:29:09.984Z,17.83
2022-12-06T11:31:47.844Z,17.60
2022-12-06T11:34:29.280Z,21.38
2022-12-06T11:37:00.378Z,16.20
2022-12-06T11:39:29.423Z,15.93
2022-12-06T11:41:59.858Z,16.60
2022-12-06T11:44:36.260Z,17.60
2022-12-06T11:47:03.355Z,18.08
2022-12-06T11:49:35.170Z,20.55
2022-12-06T11:52:07.547Z,18.52
2022-12-06T11:54:44.412Z,17.48
2022-12-06T11:57:23.064Z,14.88
2022-12-06T12:00:14.233Z,17.30
2022-12-06T12:02:43.320Z,20.85
2022-12-06T12:05:30.854Z,20.02
2022-12-06T12:08:04.912Z,23.50
2022-12-06T12:10:39.373Z,22.13
2022-12-06T12:13:30.646Z,18.85
2022-12-06T12:16:15.670Z,19.25
2022-12-06T12:19:05.990Z,22.15
2022-12-06T12:21:42.327Z,22.55
2022-12-06T12:24:56.563Z,20.08
2022-12-06T12:27:36.167Z,18.98
2022-12-06T12:30:20.807Z,19.90
2022-12-06T12:32:50.458Z,16.52
2022-12-06T12:35:20.513Z,21.23
2022-12-06T12:37:58.831Z,18.75
2022-12-06T12:40:33.223Z,19.00
2022-12-06T12:43:04.781Z,22.00
2022-12-06T12:45:31.899Z,18.15
2022-12-06T12:48:22.353Z,17.95
2022-12-06T12:50:58.031Z,16.58
2022-12-06T12:53:32.202Z,17.38
2022-12-06T12:56:24.773Z,19.55
2022-12-06T12:58:55.122Z,16.73
2022-12-06T13:01:24.889Z,17.27
2022-12-06T13:03:57.631Z,17.10
2022-12-06T13:06:48.916Z,16.38
2022-12-06T13:09:38.561Z,19.52
2022-12-06T13:12:12.908Z,18.42
2022-12-06T13:14:44.917Z,17.17
2022-12-06T13:17:13.397Z,19.27
2022-12-06T13:19:48.767Z,17.83
2022-12-06T13:22:28.079Z,19.95
2022-12-06T13:25:04.556Z,17.52
2022-12-06T13:27:36.173Z,14.40
2022-12-06T13:30:22.461Z,14.95
2022-12-06T13:33:00.409Z,14.85
2022-12-06T13:35:34.997Z,13.82
2022-12-06T13:38:26.080Z,13.45
2022-12-06T13:40:55.866Z,13.70
2022-12-06T13:43:25.777Z,14.13
2022-12-06T13:46:09.519Z,18.58
2022-12-06T13:48:37.858Z,16.05
2022-12-06T13:51:11.348Z,20.42
2022-12-06T13:54:07.264Z,18.77
2022-12-06T13:56:34.163Z,16.58
2022-12-06T13:59:02.597Z,16.77
2022-12-06T14:01:46.561Z,19.10
2022-12-06T14:06:55.453Z,19.83
2022-12-06T14:09:24.006Z,22.77
2022-12-06T14:11:53.037Z,20.55
2022-12-06T14:14:21.724Z,18.75
2022-12-06T14:16:59.102Z,17.55
2022-12-06T14:19:28.883Z,17.30
2022-12-06T14:22:02.591Z,17.25
2022-12-06T14:24:39.248Z,19.08
2022-12-06T14:27:19.029Z,19.02
2022-12-06T14:30:14.669Z,21.63
2022-12-06T14:32:50.349Z,20.13
2022-12-06T14:38:02.085Z,21.40
2022-12-06T14:40:58.930Z,19.45
2022-12-06T14:43:28.507Z,22.77
2022-12-06T14:45:57.411Z,18.67
2022-12-06T14:48:24.950Z,22.40
2022-12-06T14:50:59.184Z,23.57
2022-12-06T14:53:33.093Z,22.25
2022-12-06T14:56:04.885Z,20.55
2022-12-06T14:58:37.263Z,19.33
2022-12-06T15:01:23.144Z,22.20
2022-12-06T15:03:59.786Z,19.05
2022-12-06T15:06:29.284Z,19.80
2022-12-06T15:08:59.068Z,21.83
2022-12-06T15:11:47.399Z,21.27
2022-12-06T15:14:24.624Z,23.58
2022-12-06T15:17:04.658Z,20.23
2022-12-06T15:19:34.674Z,20.70
2022-12-06T15:22:03.374Z,23.45
2022-12-06T15:24:31.204Z,24.27
2022-12-06T15:26:58.245Z,20.52
2022-12-06T15:29:25.224Z,22.85
2022-12-06T15:31:54.320Z,20.23
2022-12-06T15:34:30.013Z,21.25
2022-12-06T15:39:45.074Z,21.38
2022-12-06T15:42:20.452Z,22.15
2022-12-06T15:44:50.102Z,20.23
2022-12-06T15:47:19.839Z,23.67
2022-12-06T15:49:48.898Z,24.45
2022-12-06T15:52:17.677Z,22.85
2022-12-06T15:54:44.760Z,24.33
2022-12-06T15:57:11.783Z,31.95
2022-12-06T15:59:38.792Z,26.10
2022-12-06T16:02:17.265Z,26.70
2022-12-06T16:04:45.446Z,23.40
2022-12-06T16:07:18.542Z,22.35
2022-12-06T16:09:46.330Z,24.77
2022-12-06T16:12:13.312Z,28.15
2022-12-06T16:14:40.345Z,23.95
2022-12-06T16:17:07.390Z,27.52
2022-12-06T16:19:53.205Z,23.65
2022-12-06T16:22:40.176Z,26.80
2022-12-06T16:25:07.384Z,30.80
2022-12-06T16:27:34.300Z,24.80
2022-12-06T16:30:01.468Z,18.95
2022-12-06T16:32:28.473Z,26.42
2022-12-06T16:34:55.451Z,22.55
2022-12-06T16:37:22.419Z,24.05
2022-12-06T16:39:49.501Z,24.45
2022-12-06T16:42:16.425Z,22.45
2022-12-06T16:44:52.257Z,26.17
2022-12-06T16:49:47.794Z,25.00
2022-12-06T16:52:16.098Z,25.02
2022-12-06T16:54:43.771Z,21.85
2022-12-06T16:57:14.915Z,24.95
2022-12-06T16:59:43.078Z,26.20
2022-12-06T17:02:26.535Z,24.88
2022-12-06T17:04:54.001Z,25.90
2022-12-06T17:07:21.033Z,25.33
2022-12-06T17:09:47.956Z,23.40
2022-12-06T17:12:15.383Z,27.52
2022-12-06T17:14:42.928Z,26.88
2022-12-06T17:17:18.200Z,27.30
2022-12-06T17:19:45.248Z,26.58
2022-12-06T17:22:15.555Z,24.77
2022-12-06T17:24:42.885Z,29.42
2022-12-06T17:27:10.033Z,27.98
2022-12-06T17:29:37.232Z,27.95
2022-12-06T17:32:04.430Z,24.90
2022-12-06T17:34:31.485Z,31.02
2022-12-06T17:36:59.021Z,28.25
2022-12-06T17:39:26.822Z,33.25
2022-12-06T17:42:12.631Z,35.03
2022-12-06T17:44:40.018Z,31.00
2022-12-06T17:47:07.251Z,32.83
2022-12-06T17:49:36.107Z,31.52
2022-12-06T17:52:03.219Z,35.38
2022-12-06T17:54:30.498Z,37.70
2022-12-06T17:56:57.589Z,40.00
2022-12-06T17:59:30.315Z,32.10
2022-12-06T18:02:17.855Z,35.15
2022-12-06T18:04:47.251Z,31.98
2022-12-06T18:07:15.429Z,34.70
2022-12-06T18:09:42.598Z,34.85
2022-12-06T18:12:10.977Z,37.53
2022-12-06T18:14:38.022Z,37.92
2022-12-06T18:17:05.180Z,37.53
2022-12-06T18:19:32.392Z,35.83
2022-12-06T18:21:59.503Z,33.38
2022-12-06T18:24:30.553Z,38.03
2022-12-06T18:27:01.183Z,38.95
2022-12-06T18:29:28.223Z,31.67
2022-12-06T18:31:55.359Z,34.88
2022-12-06T18:34:22.900Z,31.85
2022-12-06T18:36:51.006Z,35.00
2022-12-06T18:39:25.029Z,34.33
2022-12-06T18:41:53.458Z,32.53
2022-12-06T18:44:20.643Z,33.80
2022-12-06T18:46:47.838Z,34.17
2022-12-06T18:49:15.245Z,35.08
2022-12-06T18:51:42.504Z,36.45
2022-12-06T18:54:10.752Z,33.08
2022-12-06T18:56:39.100Z,36.83
2022-12-06T18:59:08.646Z,33.13
2022-12-06T19:01:37.852Z,38.03
2022-12-06T19:04:06.781Z,30.13
2022-12-06T19:06:36.207Z,35.28
2022-12-06T19:09:07.835Z,32.53
2022-12-06T19:11:43.237Z,32.83
2022-12-06T19:14:10.313Z,30.48
2022-12-06T19:16:42.833Z,29.20
2022-12-06T19:19:16.254Z,32.70
2022-12-06T19:21:45.733Z,34.88
2022-12-06T19:24:16.009Z,30.02
2022-12-06T19:26:43.541Z,32.85
2022-12-06T19:29:10.905Z,31.88
2022-12-06T19:31:38.172Z,30.90
2022-12-06T19:34:05.383Z,29.20
2022-12-06T19:36:32.700Z,27.45
2022-12-06T19:39:06.261Z,28.35
2022-12-06T19:41:52.678Z,27.88
2022-12-06T19:44:19.683Z,27.98
2022-12-06T19:46:48.327Z,25.50
2022-12-06T19:49:17.598Z,27.35
2022-12-06T19:51:47.245Z,26.52
2022-12-06T19:54:23.794Z,25.63
2022-12-06T19:56:53.380Z,27.00
2022-12-06T19:59:22.264Z,27.83
2022-12-06T20:01:50.243Z,28.45
2022-12-06T20:04:21.026Z,26.40
2022-12-06T20:06:49.189Z,29.30
2022-12-06T20:09:17.535Z,25.15
2022-12-06T20:12:01.895Z,23.92
2022-12-06T20:14:32.860Z,26.42
2022-12-06T20:16:59.958Z,26.33
2022-12-06T20:19:27.124Z,23.83
2022-12-06T20:21:54.168Z,32.53
2022-12-06T20:24:22.424Z,28.40
2022-12-06T20:26:52.048Z,31.05
2022-12-06T20:29:20.139Z,26.92
2022-12-06T20:31:50.084Z,25.50
2022-12-06T20:34:17.704Z,25.15
2022-12-06T20:36:45.100Z,27.23
2022-12-06T20:39:21.963Z,33.58
2022-12-06T20:41:50.067Z,30.13
2022-12-06T20:44:18.387Z,31.17
2022-12-06T20:46:45.918Z,143.63
2022-12-06T20:49:13.248Z,37.10
2022-12-06T20:51:40.628Z,147.13
2022-12-06T20:54:07.889Z,157.98
2022-12-06T20:56:37.896Z,70.93
2022-12-06T20:59:07.053Z,48.45
2022-12-06T21:01:40.276Z,36.08
2022-12-06T21:04:07.979Z,33.45
2022-12-06T21:06:35.557Z,34.20
2022-12-06T21:09:02.766Z,35.42
2022-12-06T21:11:29.912Z,37.95
2022-12-06T21:13:58.100Z,40.80
2022-12-06T21:16:30.284Z,37.35
2022-12-06T21:19:05.738Z,37.63
2022-12-06T21:21:39.147Z,39.75
2022-12-06T21:24:11.203Z,41.58
2022-12-06T21:26:38.660Z,38.72
2022-12-06T21:29:05.734Z,47.40
2022-12-06T21:31:35.537Z,42.38
2022-12-06T21:34:02.962Z,43.08
2022-12-06T21:36:30.273Z,38.42
2022-12-06T21:38:58.457Z,43.58
2022-12-06T21:41:26.024Z,41.13
2022-12-06T21:43:53.290Z,43.70
2022-12-06T21:46:22.932Z,43.60
2022-12-06T21:48:55.443Z,40.75
2022-12-06T21:51:23.960Z,43.25
2022-12-06T21:53:51.226Z,40.08
2022-12-06T21:56:20.914Z,45.33
2022-12-06T21:58:48.814Z,85.55
2022-12-06T22:01:19.240Z,47.00
2022-12-06T22:03:50.717Z,40.75
2022-12-06T22:06:18.671Z,43.60
2022-12-06T22:08:47.027Z,44.60
2022-12-06T22:11:19.410Z,42.50
2022-12-06T22:13:47.879Z,47.42
2022-12-06T22:16:16.357Z,49.63
2022-12-06T22:18:46.066Z,42.00
2022-12-06T22:21:21.147Z,40.20
2022-12-06T22:23:48.668Z,43.33
2022-12-06T22:26:20.623Z,41.88
2022-12-06T22:28:48.574Z,39.50
2022-12-06T22:31:19.062Z,39.63
2022-12-06T22:33:47.084Z,51.35
2022-12-06T22:36:16.292Z,50.97
2022-12-06T22:38:43.619Z,43.72
2022-12-06T22:41:10.851Z,39.20
2022-12-06T22:43:37.958Z,39.33
2022-12-06T22:46:07.877Z,43.53
2022-12-06T22:48:44.453Z,39.47
2022-12-06T22:51:14.600Z,44.47
2022-12-06T22:53:43.701Z,35.42
2022-12-06T22:56:11.087Z,38.38
2022-12-06T22:58:38.370Z,44.47
2022-12-06T23:01:25.699Z,45.40
2022-12-06T23:03:53.734Z,38.03
2022-12-06T23:06:24.157Z,39.90
2022-12-06T23:08:52.483Z,40.55
2022-12-06T23:11:25.681Z,36.47
2022-12-06T23:13:53.716Z,43.30
2022-12-06T23:16:23.151Z,34.17
2022-12-06T23:18:51.054Z,42.05
2022-12-06T23:21:23.893Z,38.42
2022-12-06T23:23:53.121Z,40.28
2022-12-06T23:26:23.012Z,39.22
2022-12-06T23:28:50.789Z,39.42
2022-12-06T23:31:20.455Z,41.22
2022-12-06T23:33:51.540Z,39.70
2022-12-06T23:36:20.998Z,39.95
2022-12-06T23:38:48.887Z,36.00
2022-12-06T23:41:18.737Z,39.60
2022-12-06T23:43:46.221Z,38.25
2022-12-06T23:46:22.166Z,39.78
2022-12-06T23:48:50.603Z,41.20
2022-12-06T23:51:20.950Z,36.28
2022-12-06T23:53:53.762Z,35.20
2022-12-06T23:56:22.160Z,34.13
2022-12-06T23:58:50.557Z,37.72
